Time;durP1;ratioP1;P1;durP2;ratioP2;P2;SDS_P1;SDS_P2;PMS_P1;PMS_P2;Temp;Humidity;BMP_temperature;BMP_pressure;BME280_temperature;BME280_humidity;BME280_pressure;Samples;Min_cycle;Max_cycle;Signal;HPM_P1;HPM_P2
2021/07/29 00:00:21;;;;;;;1.70;1.60;;;16.50;99.90;;;;;;5016998;28;20178;-65
2021/07/29 00:02:47;;;;;;;1.90;1.80;;;16.40;99.90;;;;;;5032046;28;20257;-66
2021/07/29 00:05:13;;;;;;;3.57;1.77;;;16.40;99.90;;;;;;5036651;28;20228;-65
2021/07/29 00:07:38;;;;;;;2.00;1.90;;;16.40;99.90;;;;;;5036017;28;20170;-68
2021/07/29 00:10:05;;;;;;;2.60;2.40;;;16.40;99.90;;;;;;5036465;28;20177;-67
2021/07/29 00:12:31;;;;;;;3.10;2.30;;;16.30;99.90;;;;;;5023016;28;20520;-68
2021/07/29 00:14:57;;;;;;;2.43;2.30;;;16.30;99.90;;;;;;5016658;28;20417;-66
2021/07/29 00:20:08;;;;;;;2.83;1.97;;;16.20;99.90;;;;;;5016602;28;20459;-68
2021/07/29 00:22:33;;;;;;;3.20;2.27;;;16.20;99.90;;;;;;5028632;28;20423;-67
2021/07/29 00:24:59;;;;;;;2.30;2.10;;;16.20;99.90;;;;;;5036288;28;20460;-67
2021/07/29 00:27:25;;;;;;;2.30;2.20;;;16.20;99.90;;;;;;5035756;28;20174;-67
2021/07/29 00:29:56;;;;;;;3.47;2.47;;;16.10;99.90;;;;;;5035982;28;20771;-67
2021/07/29 00:32:22;;;;;;;2.00;1.80;;;16.10;99.90;;;;;;5035393;28;20185;-67
2021/07/29 00:34:48;;;;;;;2.33;2.13;;;16.00;99.90;;;;;;5036219;28;20763;-67
2021/07/29 00:37:13;;;;;;;2.20;2.00;;;16.00;99.90;;;;;;5035546;28;20208;-67
2021/07/29 00:39:39;;;;;;;2.13;2.03;;;16.00;99.90;;;;;;5035728;28;20255;-68
2021/07/29 00:42:04;;;;;;;2.37;2.17;;;16.00;99.90;;;;;;5027266;28;20183;-67
2021/07/29 00:44:30;;;;;;;3.00;2.20;;;16.10;99.90;;;;;;5015936;28;20557;-67
2021/07/29 00:46:56;;;;;;;1.87;1.70;;;16.10;99.90;;;;;;5015760;28;20220;-67
2021/07/29 00:49:23;;;;;;;2.63;2.37;;;16.10;99.90;;;;;;5014653;28;20469;-66
2021/07/29 00:51:49;;;;;;;2.80;2.60;;;16.20;99.90;;;;;;5020670;28;20479;-67
2021/07/29 00:54:15;;;;;;;2.10;2.00;;;16.30;99.90;;;;;;5035791;28;20437;-67
2021/07/29 00:56:45;;;;;;;2.40;2.10;;;16.30;99.90;;;;;;5035287;28;20420;-68
2021/07/29 00:59:11;;;;;;;1.80;1.70;;;16.40;99.90;;;;;;5035506;28;20194;-67
2021/07/29 01:01:37;;;;;;;2.37;2.17;;;16.40;99.90;;;;;;5031657;28;20448;-68
2021/07/29 01:04:02;;;;;;;4.20;2.40;;;16.50;99.90;;;;;;5015560;28;20457;-68
2021/07/29 01:06:28;;;;;;;2.30;1.50;;;16.60;99.90;;;;;;5015666;28;20174;-67
2021/07/29 01:09:06;;;;;;;2.10;1.90;;;16.60;99.90;;;;;;5015200;28;20238;-68
2021/07/29 01:11:32;;;;;;;2.57;2.37;;;16.60;99.90;;;;;;5017964;28;20206;-67
2021/07/29 01:13:57;;;;;;;2.20;2.00;;;16.60;99.90;;;;;;5035350;28;20415;-67
2021/07/29 01:16:23;;;;;;;2.93;1.40;;;16.60;99.90;;;;;;5035018;28;20198;-67
2021/07/29 01:18:49;;;;;;;2.20;2.00;;;16.60;99.90;;;;;;5034268;28;20194;-67
2021/07/29 01:21:14;;;;;;;1.60;1.50;;;16.60;99.90;;;;;;5034959;28;20252;-68
2021/07/29 01:23:40;;;;;;;2.47;1.90;;;16.50;99.90;;;;;;5015177;28;20189;-67
2021/07/29 01:26:05;;;;;;;2.00;1.90;;;16.50;99.90;;;;;;5014999;28;20171;-67
2021/07/29 01:28:31;;;;;;;1.67;1.57;;;16.50;99.90;;;;;;5014482;28;20661;-67
2021/07/29 01:30:57;;;;;;;1.83;1.40;;;16.50;99.90;;;;;;5014829;28;20197;-68
2021/07/29 01:33:22;;;;;;;2.30;2.10;;;16.40;99.90;;;;;;5034319;28;20182;-67
2021/07/29 01:35:48;;;;;;;1.83;1.53;;;16.40;99.90;;;;;;5034696;28;20182;-66
2021/07/29 01:38:13;;;;;;;1.80;1.70;;;16.40;99.90;;;;;;5034391;28;20213;-68
2021/07/29 01:40:39;;;;;;;2.20;2.00;;;16.40;99.90;;;;;;5034777;28;20217;-67
2021/07/29 01:43:05;;;;;;;2.67;1.97;;;16.30;99.90;;;;;;5017393;28;20182;-68
2021/07/29 01:45:31;;;;;;;2.17;1.97;;;16.30;99.90;;;;;;5015258;28;20198;-67
2021/07/29 01:47:57;;;;;;;2.10;1.87;;;16.30;99.90;;;;;;5015438;28;20195;-67
2021/07/29 01:50:22;;;;;;;2.60;2.40;;;16.20;99.90;;;;;;5014755;28;20409;-67
2021/07/29 01:52:48;;;;;;;4.30;2.67;;;16.20;99.90;;;;;;5029171;28;20178;-68
2021/07/29 01:55:14;;;;;;;2.40;2.20;;;16.20;99.90;;;;;;5034290;28;20420;-67
2021/07/29 01:57:39;;;;;;;2.23;2.03;;;16.10;99.90;;;;;;5033945;28;20171;-67
2021/07/29 02:00:06;;;;;;;2.20;2.00;;;16.10;99.90;;;;;;5034099;28;20641;-68
2021/07/29 02:02:32;;;;;;;3.07;2.87;;;16.00;99.90;;;;;;5019625;28;20553;-68
2021/07/29 02:04:58;;;;;;;3.87;3.20;;;16.00;99.90;;;;;;5014512;28;20472;-68
2021/07/29 02:07:23;;;;;;;2.83;2.50;;;15.90;99.90;;;;;;5014156;28;20171;-67
2021/07/29 02:09:49;;;;;;;3.20;2.90;;;15.90;99.90;;;;;;5014565;28;20691;-67
2021/07/29 02:12:14;;;;;;;3.20;2.87;;;15.90;99.90;;;;;;5025106;28;20215;-68
2021/07/29 02:14:40;;;;;;;2.30;2.03;;;15.90;99.90;;;;;;5034589;28;20200;-67
2021/07/29 02:17:06;;;;;;;2.73;2.13;;;15.80;99.90;;;;;;5022061;28;20186;-67
2021/07/29 02:19:32;;;;;;;2.87;2.70;;;15.80;99.90;;;;;;5014454;28;20199;-66
2021/07/29 02:21:58;;;;;;;2.73;2.33;;;15.80;99.90;;;;;;5014487;28;20523;-66
2021/07/29 02:24:24;;;;;;;3.10;2.30;;;15.80;99.90;;;;;;5031631;28;20848;-67
2021/07/29 02:26:49;;;;;;;2.47;2.13;;;15.70;99.90;;;;;;5032963;28;20518;-68
2021/07/29 02:29:15;;;;;;;2.43;2.23;;;15.70;99.90;;;;;;5033907;28;20288;-67
2021/07/29 02:31:41;;;;;;;2.53;2.30;;;15.70;99.90;;;;;;5033777;28;20204;-67
2021/07/29 02:34:07;;;;;;;2.53;2.33;;;15.70;99.90;;;;;;5033883;28;20419;-67
2021/07/29 02:36:32;;;;;;;2.80;2.60;;;15.70;99.90;;;;;;5016365;28;20193;-67
2021/07/29 02:38:58;;;;;;;3.50;3.20;;;15.70;99.90;;;;;;5013803;28;20233;-68
2021/07/29 02:41:24;;;;;;;3.43;3.13;;;15.70;99.90;;;;;;5013903;28;20174;-68
2021/07/29 02:43:49;;;;;;;3.40;3.17;;;15.70;99.90;;;;;;5014053;28;20201;-67
2021/07/29 02:46:15;;;;;;;3.30;3.00;;;15.70;99.90;;;;;;5026020;28;20182;-66
2021/07/29 02:48:41;;;;;;;2.50;2.30;;;15.70;99.90;;;;;;5033219;28;20200;-67
2021/07/29 02:51:07;;;;;;;2.47;2.37;;;15.70;99.90;;;;;;5033632;28;20166;-65
2021/07/29 02:53:33;;;;;;;2.67;2.47;;;15.70;99.90;;;;;;5033718;28;20174;-65
2021/07/29 02:56:03;;;;;;;3.50;2.80;;;15.80;99.90;;;;;;5022569;28;20182;-65
2021/07/29 02:58:29;;;;;;;2.70;2.40;;;15.80;99.90;;;;;;5013204;28;20420;-66
2021/07/29 03:00:55;;;;;;;2.53;2.33;;;15.80;99.90;;;;;;5013923;28;20742;-66
2021/07/29 03:03:21;;;;;;;3.13;2.53;;;15.80;99.90;;;;;;5013824;28;20425;-66
2021/07/29 03:05:46;;;;;;;2.30;2.10;;;15.80;99.90;;;;;;5021128;28;20205;-67
2021/07/29 03:08:12;;;;;;;2.27;1.73;;;15.80;99.90;;;;;;5032821;28;20197;-66
2021/07/29 03:10:38;;;;;;;2.97;2.70;;;15.80;99.90;;;;;;5032491;28;20283;-67
2021/07/29 03:13:04;;;;;;;2.93;2.50;;;15.80;99.90;;;;;;5033028;28;20614;-66
2021/07/29 03:15:31;;;;;;;2.40;2.20;;;15.80;99.90;;;;;;5027639;28;20187;-66
2021/07/29 03:17:57;;;;;;;3.93;2.80;;;15.80;99.90;;;;;;5013183;28;20486;-66
2021/07/29 03:20:23;;;;;;;2.53;2.33;;;15.80;99.90;;;;;;5013462;28;20794;-66
2021/07/29 03:22:49;;;;;;;2.90;2.70;;;15.80;99.90;;;;;;5013608;28;20430;-66
2021/07/29 03:25:15;;;;;;;3.10;2.80;;;15.80;99.90;;;;;;5016118;28;20438;-67
2021/07/29 03:27:40;;;;;;;2.50;2.30;;;15.70;99.90;;;;;;5032612;28;20177;-66
2021/07/29 03:30:06;;;;;;;2.10;2.00;;;15.70;99.90;;;;;;5032946;28;20416;-66
2021/07/29 03:32:32;;;;;;;2.57;2.40;;;15.70;99.90;;;;;;5033146;28;20188;-67
2021/07/29 03:34:57;;;;;;;3.20;2.90;;;15.80;99.90;;;;;;5032719;28;20422;-66
2021/07/29 03:37:23;;;;;;;2.63;2.43;;;15.70;99.90;;;;;;5012948;28;20186;-66
2021/07/29 03:39:49;;;;;;;2.60;2.40;;;15.70;99.90;;;;;;5013340;28;20210;-66
2021/07/29 03:42:14;;;;;;;3.40;2.80;;;15.70;99.90;;;;;;5013328;28;20181;-67
2021/07/29 03:44:40;;;;;;;2.70;2.50;;;15.70;99.90;;;;;;5013382;28;20213;-67
2021/07/29 03:47:06;;;;;;;3.03;2.80;;;15.70;99.90;;;;;;5019590;28;20546;-66
2021/07/29 03:49:35;;;;;;;4.67;2.43;;;15.60;99.90;;;;;;5013207;28;20292;-66
2021/07/29 03:52:01;;;;;;;2.97;2.70;;;15.70;99.90;;;;;;5013316;28;20439;-66
2021/07/29 03:54:27;;;;;;;3.33;3.00;;;15.60;99.90;;;;;;5013188;28;20440;-66
2021/07/29 03:56:52;;;;;;;2.67;2.47;;;15.60;99.90;;;;;;5019004;28;20467;-65
2021/07/29 03:59:18;;;;;;;2.87;2.67;;;15.60;99.90;;;;;;5032740;28;20243;-65
2021/07/29 04:01:43;;;;;;;3.07;2.67;;;15.60;99.90;;;;;;5033012;28;20231;-66
2021/07/29 04:04:09;;;;;;;2.63;2.40;;;15.70;99.90;;;;;;5032704;28;20197;-65
2021/07/29 04:06:35;;;;;;;2.23;2.03;;;15.60;99.90;;;;;;5029075;28;20179;-69
2021/07/29 04:09:00;;;;;;;2.97;2.60;;;15.60;99.90;;;;;;5017659;28;20185;-65
2021/07/29 04:11:26;;;;;;;4.07;3.37;;;15.60;99.90;;;;;;5014023;28;20171;-65
2021/07/29 04:13:51;;;;;;;4.13;2.07;;;15.70;99.90;;;;;;5013058;28;20180;-66
2021/07/29 04:16:17;;;;;;;3.10;2.70;;;15.70;99.90;;;;;;5013053;28;20202;-66
2021/07/29 04:18:43;;;;;;;5.53;2.27;;;15.70;99.90;;;;;;5024760;28;20632;-66
2021/07/29 04:21:15;;;;;;;3.83;3.40;;;15.70;99.90;;;;;;5013514;28;20185;-66
2021/07/29 04:23:41;;;;;;;2.97;2.67;;;15.80;99.90;;;;;;5014954;28;20175;-65
2021/07/29 04:26:07;;;;;;;3.10;2.20;;;15.80;99.90;;;;;;5016592;28;20607;-66
2021/07/29 04:28:32;;;;;;;2.47;2.27;;;15.90;99.90;;;;;;5015961;28;20432;-66
2021/07/29 04:30:58;;;;;;;3.20;2.70;;;15.80;99.90;;;;;;5016164;28;20241;-65
2021/07/29 04:33:24;;;;;;;4.60;2.40;;;15.90;99.90;;;;;;5015502;28;20201;-65
2021/07/29 04:35:49;;;;;;;2.70;2.50;;;15.90;99.90;;;;;;5015979;28;20175;-66
2021/07/29 04:38:15;;;;;;;2.73;2.53;;;16.00;99.90;;;;;;5015715;28;20199;-65
2021/07/29 04:40:40;;;;;;;2.50;2.30;;;16.10;99.90;;;;;;5016228;28;20186;-66
2021/07/29 04:43:06;;;;;;;2.77;2.57;;;16.20;99.90;;;;;;5015679;28;20229;-66
2021/07/29 04:45:32;;;;;;;3.20;2.90;;;16.40;99.90;;;;;;5023072;28;20202;-66
2021/07/29 04:47:58;;;;;;;3.97;2.67;;;16.40;99.90;;;;;;5015579;28;20197;-65
2021/07/29 04:50:23;;;;;;;2.43;2.23;;;16.50;99.90;;;;;;5015796;28;20885;-66
2021/07/29 04:52:50;;;;;;;2.50;2.20;;;16.60;99.90;;;;;;5029671;28;20174;-65
2021/07/29 04:55:16;;;;;;;3.00;2.77;;;16.70;99.90;;;;;;5035628;28;20186;-62
2021/07/29 04:57:42;;;;;;;2.37;2.17;;;16.70;99.90;;;;;;5035487;28;20899;-63
2021/07/29 05:00:08;;;;;;;4.13;2.90;;;16.70;99.90;;;;;;5035897;28;20405;-63
2021/07/29 05:02:34;;;;;;;2.80;2.40;;;16.80;99.90;;;;;;5023813;28;20273;-63
2021/07/29 05:05:00;;;;;;;2.93;2.47;;;16.90;99.90;;;;;;5015666;28;20961;-63
2021/07/29 05:07:28;;;;;;;2.80;2.60;;;17.20;99.90;;;;;;5020946;28;20171;-64
2021/07/29 05:09:53;;;;;;;2.60;2.40;;;17.40;99.90;;;;;;5032273;28;20202;-63
2021/07/29 05:12:19;;;;;;;2.37;2.17;;;17.70;99.90;;;;;;5033788;28;20401;-63
2021/07/29 05:14:45;;;;;;;2.40;2.20;;;17.90;99.90;;;;;;5035208;28;20264;-62
2021/07/29 05:17:10;;;;;;;3.13;2.90;;;18.00;99.90;;;;;;5023588;28;20189;-63
2021/07/29 05:19:36;;;;;;;2.60;2.37;;;18.10;99.90;;;;;;5015291;28;20197;-63
2021/07/29 05:22:02;;;;;;;3.50;2.60;;;18.20;99.90;;;;;;5015233;28;20174;-62
2021/07/29 05:24:28;;;;;;;5.03;2.90;;;18.30;99.90;;;;;;5015150;28;20208;-62
2021/07/29 05:26:54;;;;;;;2.67;2.43;;;18.30;99.90;;;;;;5015020;28;20404;-63
2021/07/29 05:29:19;;;;;;;2.43;2.23;;;18.40;99.90;;;;;;5015132;28;20669;-63
2021/07/29 05:31:45;;;;;;;2.30;2.20;;;18.50;99.90;;;;;;5021963;28;20198;-62
2021/07/29 05:34:11;;;;;;;2.60;2.40;;;18.70;99.90;;;;;;5018628;28;20189;-62
2021/07/29 05:36:37;;;;;;;3.30;3.00;;;18.90;99.90;;;;;;5027154;28;20309;-64
2021/07/29 05:39:05;;;;;;;1.93;1.70;;;19.10;99.90;;;;;;5034678;28;20630;-63
2021/07/29 05:41:31;;;;;;;12.23;2.00;;;19.30;99.90;;;;;;5035177;28;20492;-65
2021/07/29 05:43:56;;;;;;;1.83;1.73;;;19.50;99.90;;;;;;5034618;28;20610;-63
2021/07/29 05:46:22;;;;;;;2.00;1.80;;;19.70;99.90;;;;;;5023377;28;20705;-63
2021/07/29 05:48:48;;;;;;;2.47;2.10;;;19.90;99.90;;;;;;5014209;28;20183;-63
2021/07/29 05:51:14;;;;;;;2.90;2.60;;;20.00;99.90;;;;;;5014453;28;20167;-65
2021/07/29 05:53:40;;;;;;;2.10;1.90;;;20.10;99.90;;;;;;5014590;28;20729;-63
2021/07/29 05:56:06;;;;;;;2.23;2.03;;;20.20;99.90;;;;;;5023063;28;20558;-63
2021/07/29 05:58:31;;;;;;;2.30;2.10;;;20.20;99.90;;;;;;5033736;28;20190;-63
2021/07/29 06:00:57;;;;;;;5.73;3.23;;;20.30;99.90;;;;;;5034426;28;20220;-64
2021/07/29 06:03:23;;;;;;;1.73;1.63;;;20.40;99.90;;;;;;5033820;28;20573;-63
2021/07/29 06:05:51;;;;;;;2.30;2.10;;;20.50;99.90;;;;;;5026297;28;20191;-63
2021/07/29 06:08:16;;;;;;;1.97;1.87;;;20.60;99.90;;;;;;5013899;28;20416;-63
2021/07/29 06:10:42;;;;;;;1.70;1.60;;;20.70;99.90;;;;;;5014543;28;20717;-64
2021/07/29 06:13:07;;;;;;;1.80;1.70;;;20.80;99.90;;;;;;5014585;28;20179;-65
2021/07/29 06:15:33;;;;;;;1.60;1.50;;;20.80;99.90;;;;;;5016438;28;20225;-67
2021/07/29 06:18:01;;;;;;;2.10;1.53;;;20.80;99.90;;;;;;5015799;28;20205;-67
2021/07/29 06:20:27;;;;;;;2.83;1.70;;;20.90;99.90;;;;;;5013934;28;20819;-67
2021/07/29 06:22:53;;;;;;;1.70;1.60;;;21.00;99.90;;;;;;5018852;28;20488;-67
2021/07/29 06:25:19;;;;;;;1.80;1.67;;;21.20;99.90;;;;;;5032478;28;20518;-66
2021/07/29 06:27:49;;;;;;;2.17;1.97;;;21.20;99.90;;;;;;5032616;28;20178;-67
2021/07/29 06:30:16;;;;;;;4.07;1.77;;;21.30;99.90;;;;;;5032519;28;20187;-67
2021/07/29 06:32:41;;;;;;;1.73;1.63;;;21.50;99.90;;;;;;5033750;28;20453;-67
2021/07/29 06:35:08;;;;;;;1.70;1.60;;;21.60;99.90;;;;;;5017551;28;20459;-66
2021/07/29 06:37:33;;;;;;;1.87;1.77;;;21.90;99.90;;;;;;5013603;28;20536;-67
2021/07/29 06:39:59;;;;;;;2.97;2.20;;;22.00;99.90;;;;;;5012888;28;20384;-69
2021/07/29 06:42:25;;;;;;;1.97;1.87;;;22.20;99.90;;;;;;5013198;28;20170;-66
2021/07/29 06:44:50;;;;;;;2.43;2.23;;;22.30;99.90;;;;;;5025928;28;20194;-65
2021/07/29 06:47:24;;;;;;;3.47;1.90;;;22.50;99.90;;;;;;5027876;28;20192;-67
2021/07/29 06:49:55;;;;;;;2.13;1.90;;;22.80;99.90;;;;;;5013015;28;20269;-66
2021/07/29 06:52:21;;;;;;;1.70;1.60;;;23.00;99.90;;;;;;5013724;28;20377;-65
2021/07/29 06:54:47;;;;;;;1.73;1.53;;;23.20;99.90;;;;;;5025368;28;20420;-66
2021/07/29 06:57:12;;;;;;;3.40;2.20;;;23.20;99.90;;;;;;5033130;28;20204;-66
2021/07/29 06:59:38;;;;;;;1.97;1.70;;;23.40;99.90;;;;;;5033592;28;20218;-65
2021/07/29 07:02:04;;;;;;;2.97;1.73;;;23.30;99.90;;;;;;5033123;28;20591;-68
2021/07/29 07:04:30;;;;;;;1.97;1.87;;;23.30;99.90;;;;;;5024298;28;20742;-66
2021/07/29 07:06:55;;;;;;;1.47;1.37;;;23.40;99.90;;;;;;5013046;28;20887;-65
2021/07/29 07:09:21;;;;;;;2.07;1.87;;;23.40;99.90;;;;;;4995312;28;20206;-67
2021/07/29 07:11:47;;;;;;;2.00;1.90;;;23.50;99.90;;;;;;4993792;28;20230;-66
2021/07/29 07:14:12;;;;;;;1.50;1.40;;;23.60;99.90;;;;;;5005783;28;20212;-66
2021/07/29 07:16:38;;;;;;;1.93;1.47;;;23.70;99.90;;;;;;5032596;28;20416;-65
2021/07/29 07:19:05;;;;;;;1.97;1.77;;;23.80;99.60;;;;;;5033000;28;20185;-66
2021/07/29 07:21:32;;;;;;;1.63;1.43;;;23.80;99.90;;;;;;5032633;28;20177;-66
2021/07/29 07:23:57;;;;;;;1.90;1.27;;;23.90;99.90;;;;;;5032287;28;20846;-66
2021/07/29 07:26:25;;;;;;;1.73;1.47;;;24.00;99.90;;;;;;5033153;28;20464;-65
2021/07/29 07:28:51;;;;;;;2.03;1.80;;;24.10;99.30;;;;;;5032561;28;20192;-65
2021/07/29 07:31:18;;;;;;;1.93;1.60;;;24.10;99.20;;;;;;5014193;28;20409;-66
2021/07/29 07:33:45;;;;;;;3.13;1.70;;;24.30;98.60;;;;;;5013634;28;20389;-66
2021/07/29 07:36:10;;;;;;;1.90;1.80;;;24.50;98.50;;;;;;5013206;28;20462;-66
2021/07/29 07:38:36;;;;;;;2.20;1.63;;;24.80;97.80;;;;;;5012762;28;20457;-66
2021/07/29 07:41:09;;;;;;;1.60;1.50;;;25.10;97.40;;;;;;5014322;28;20174;-68
2021/07/29 07:43:36;;;;;;;2.00;1.90;;;25.50;96.60;;;;;;5032767;28;20468;-66
2021/07/29 07:46:03;;;;;;;1.57;1.47;;;26.20;94.80;;;;;;5032943;28;20380;-66
2021/07/29 07:48:29;;;;;;;1.70;1.60;;;27.10;93.50;;;;;;5030880;28;20799;-67
2021/07/29 07:50:55;;;;;;;1.50;1.33;;;28.00;92.20;;;;;;5032172;28;20397;-68
2021/07/29 07:53:26;;;;;;;1.80;1.50;;;29.10;91.50;;;;;;5032799;28;20197;-66
2021/07/29 07:55:52;;;;;;;2.70;2.13;;;30.10;87.70;;;;;;5032771;28;20805;-67
2021/07/29 07:58:18;;;;;;;1.90;1.80;;;30.90;82.70;;;;;;5034100;28;20417;-67
2021/07/29 08:00:44;;;;;;;2.20;2.10;;;31.30;79.00;;;;;;5035249;28;20415;-65
2021/07/29 08:03:11;;;;;;;1.90;1.80;;;31.70;76.80;;;;;;5019225;28;20498;-66
2021/07/29 08:05:37;;;;;;;2.50;1.97;;;32.30;76.20;;;;;;5016682;28;20217;-68
2021/07/29 08:08:06;;;;;;;3.13;2.30;;;32.90;72.90;;;;;;5016258;28;20425;-69
2021/07/29 08:10:32;;;;;;;3.70;2.30;;;33.70;73.20;;;;;;5016871;28;20166;-69
2021/07/29 08:12:58;;;;;;;2.50;2.30;;;34.50;69.10;;;;;;5016508;28;20758;-68
2021/07/29 08:15:23;;;;;;;2.47;2.27;;;34.80;63.90;;;;;;5032353;28;20564;-68
2021/07/29 08:17:49;;;;;;;2.60;2.23;;;34.50;63.80;;;;;;5034847;28;20167;-68
2021/07/29 08:20:18;;;;;;;2.70;2.50;;;34.10;64.60;;;;;;5022506;28;20182;-68
2021/07/29 08:22:43;;;;;;;3.30;3.00;;;34.00;65.80;;;;;;5019920;28;20799;-68
2021/07/29 08:25:09;;;;;;;1.87;1.77;;;33.70;66.60;;;;;;5035979;28;20498;-68
2021/07/29 08:27:35;;;;;;;4.40;2.57;;;33.50;66.80;;;;;;5035450;28;20245;-68
2021/07/29 08:30:02;;;;;;;2.10;2.00;;;33.80;65.50;;;;;;5035245;28;20436;-68
2021/07/29 08:32:28;;;;;;;1.57;1.47;;;33.70;66.90;;;;;;5035959;28;20463;-68
2021/07/29 08:34:55;;;;;;;2.70;2.50;;;33.40;68.30;;;;;;5035556;28;20982;-68
2021/07/29 08:37:21;;;;;;;2.30;2.10;;;32.20;71.20;;;;;;5034227;28;20182;-67
2021/07/29 08:39:47;;;;;;;2.07;1.97;;;31.30;71.80;;;;;;5035543;28;20483;-67
2021/07/29 08:42:12;;;;;;;1.73;1.63;;;30.90;74.80;;;;;;5015605;28;20206;-65
2021/07/29 08:44:38;;;;;;;2.40;2.20;;;30.90;74.00;;;;;;5017633;28;20207;-67
2021/07/29 08:47:11;;;;;;;2.03;1.93;;;31.20;75.10;;;;;;5035330;28;20173;-66
2021/07/29 08:49:43;;;;;;;3.43;2.13;;;31.20;74.40;;;;;;5035882;28;20191;-67
2021/07/29 08:52:09;;;;;;;3.10;2.87;;;30.80;74.60;;;;;;5035587;28;20401;-67
2021/07/29 08:54:37;;;;;;;1.97;1.87;;;30.70;76.40;;;;;;5035322;28;20500;-66
2021/07/29 08:57:04;;;;;;;2.10;2.00;;;31.10;74.20;;;;;;5035276;28;20210;-67
2021/07/29 08:59:29;;;;;;;2.97;2.67;;;31.60;72.40;;;;;;5032272;28;20550;-67
2021/07/29 09:01:56;;;;;;;2.17;1.97;;;31.80;67.00;;;;;;5015642;28;20498;-67
2021/07/29 09:04:22;;;;;;;2.70;2.30;;;31.30;66.50;;;;;;5015512;28;20191;-67
2021/07/29 09:06:59;;;;;;;2.47;2.27;;;31.30;66.10;;;;;;5015292;28;20406;-67
2021/07/29 09:09:47;;;;;;;2.43;2.23;;;31.30;67.00;;;;;;5014404;28;20237;-66
2021/07/29 09:12:15;;;;;;;3.13;2.40;;;31.60;67.40;;;;;;5015614;28;20908;-64
2021/07/29 09:14:41;;;;;;;7.73;2.80;;;31.80;65.10;;;;;;5021716;28;20395;-64
2021/07/29 09:17:09;;;;;;;2.50;2.30;;;30.90;66.30;;;;;;5033747;28;20439;-64
2021/07/29 09:20:00;;;;;;;1.80;1.70;;;29.80;74.10;;;;;;5035006;28;20221;-63
2021/07/29 09:22:29;;;;;;;3.13;2.53;;;29.40;77.60;;;;;;5035279;28;20375;-64
2021/07/29 09:25:09;;;;;;;1.83;1.73;;;28.50;80.30;;;;;;5035253;28;20444;-64
2021/07/29 09:27:37;;;;;;;2.57;2.37;;;28.30;82.50;;;;;;5034766;28;20405;-64
2021/07/29 09:30:17;;;;;;;2.30;2.10;;;28.00;83.70;;;;;;5022950;28;20429;-63
2021/07/29 09:33:05;;;;;;;5.00;2.20;;;27.80;82.00;;;;;;5014919;28;20380;-64
2021/07/29 09:35:31;;;;;;;2.40;2.20;;;28.20;82.80;;;;;;5015176;28;20414;-64
2021/07/29 09:37:59;;;;;;;1.63;1.53;;;28.90;80.30;;;;;;5014555;28;20427;-65
2021/07/29 09:40:25;;;;;;;2.40;2.20;;;29.30;79.00;;;;;;5015071;28;20393;-64
2021/07/29 09:43:09;;;;;;;4.73;2.37;;;29.90;75.20;;;;;;5013985;28;20395;-65
2021/07/29 09:45:35;;;;;;;2.57;2.37;;;31.10;71.50;;;;;;5018107;28;20201;-63
2021/07/29 09:48:03;;;;;;;2.30;2.20;;;32.20;68.20;;;;;;5033096;28;20441;-64
2021/07/29 09:50:29;;;;;;;3.03;2.30;;;32.30;64.80;;;;;;5034674;28;20383;-64
2021/07/29 09:52:55;;;;;;;2.30;2.10;;;32.00;65.40;;;;;;5034765;28;20405;-64
2021/07/29 09:55:22;;;;;;;2.40;2.20;;;32.10;64.80;;;;;;5034674;28;20720;-63
2021/07/29 09:57:47;;;;;;;2.80;2.57;;;32.70;65.40;;;;;;5034119;28;20212;-64
2021/07/29 10:00:14;;;;;;;2.20;2.10;;;33.60;62.70;;;;;;5031652;28;20443;-64
2021/07/29 10:02:42;;;;;;;3.10;2.70;;;34.30;60.50;;;;;;5014697;28;20568;-64
2021/07/29 10:05:09;;;;;;;2.43;2.23;;;34.70;59.40;;;;;;5014197;28;20464;-63
2021/07/29 10:07:39;;;;;;;2.80;2.60;;;35.00;57.70;;;;;;5013889;28;20410;-64
2021/07/29 10:10:07;;;;;;;2.87;2.67;;;35.40;57.40;;;;;;5014665;28;20413;-64
2021/07/29 10:12:33;;;;;;;2.57;2.47;;;35.80;57.60;;;;;;5014608;28;20440;-65
2021/07/29 10:15:00;;;;;;;2.50;2.30;;;35.80;56.80;;;;;;5016847;28;20456;-64
2021/07/29 10:17:35;;;;;;;2.60;2.40;;;35.90;56.40;;;;;;5020545;28;20430;-64
2021/07/29 10:20:14;;;;;;;3.20;3.00;;;36.20;56.10;;;;;;5014233;28;20409;-64
2021/07/29 10:22:40;;;;;;;2.30;2.20;;;36.40;55.50;;;;;;5014526;28;20758;-64
2021/07/29 10:25:06;;;;;;;2.07;1.97;;;36.30;55.50;;;;;;5014198;28;20485;-64
2021/07/29 10:27:33;;;;;;;2.73;2.53;;;36.10;55.00;;;;;;5013894;28;20440;-63
2021/07/29 10:30:20;;;;;;;3.17;2.97;;;36.10;54.10;;;;;;5018525;28;20910;-64
2021/07/29 10:32:50;;;;;;;2.60;2.40;;;36.10;54.50;;;;;;5033765;28;20462;-64
2021/07/29 10:35:31;;;;;;;2.90;2.70;;;36.20;53.60;;;;;;5033799;28;20401;-64
2021/07/29 10:37:58;;;;;;;2.50;2.30;;;35.80;55.00;;;;;;5033516;28;20424;-64
2021/07/29 10:40:34;;;;;;;2.10;2.00;;;35.30;55.00;;;;;;5033933;28;20417;-63
2021/07/29 10:43:25;;;;;;;3.40;2.50;;;35.20;55.70;;;;;;5033842;28;20397;-64
2021/07/29 10:45:52;;;;;;;2.70;2.50;;;35.30;54.80;;;;;;5019558;28;20457;-63
2021/07/29 10:48:50;;;;;;;2.77;2.57;;;34.80;53.80;;;;;;5013563;28;20523;-62
2021/07/29 10:51:18;;;;;;;3.50;3.20;;;33.70;55.40;;;;;;5013922;28;20377;-63
2021/07/29 10:53:46;;;;;;;2.93;2.60;;;33.00;56.00;;;;;;5013819;28;20753;-63
2021/07/29 10:56:13;;;;;;;2.80;2.60;;;32.80;57.60;;;;;;5013791;28;20402;-64
2021/07/29 10:58:41;;;;;;;2.60;2.40;;;32.60;56.60;;;;;;5013304;28;20428;-63
2021/07/29 11:01:07;;;;;;;3.37;3.07;;;32.40;57.00;;;;;;5031491;28;20387;-63
2021/07/29 11:03:33;;;;;;;2.63;2.30;;;32.30;57.20;;;;;;5033682;28;20425;-63
2021/07/29 11:06:05;;;;;;;4.07;3.00;;;31.80;57.00;;;;;;5033445;28;20500;-65
2021/07/29 11:08:32;;;;;;;2.90;2.70;;;31.60;58.00;;;;;;5032931;28;20312;-65
2021/07/29 11:11:02;;;;;;;2.37;2.17;;;31.10;58.40;;;;;;5033304;28;20425;-65
2021/07/29 11:13:29;;;;;;;2.90;2.70;;;31.00;60.10;;;;;;5033439;28;20747;-63
2021/07/29 11:15:57;;;;;;;2.20;2.10;;;31.20;60.00;;;;;;5014935;28;20408;-65
2021/07/29 11:18:23;;;;;;;2.60;2.40;;;31.50;60.50;;;;;;5013012;28;20539;-65
2021/07/29 11:20:49;;;;;;;4.10;3.70;;;31.30;57.80;;;;;;5013512;28;20437;-64
2021/07/29 11:23:35;;;;;;;3.60;3.23;;;31.00;59.20;;;;;;5013665;28;20175;-64
2021/07/29 11:26:03;;;;;;;2.93;2.73;;;30.60;58.70;;;;;;5013807;28;20516;-64
2021/07/29 11:28:30;;;;;;;3.27;2.97;;;30.10;58.60;;;;;;5012879;28;20429;-63
2021/07/29 11:30:56;;;;;;;2.17;1.97;;;29.70;58.90;;;;;;5033014;28;20417;-64
2021/07/29 11:33:24;;;;;;;3.60;2.43;;;29.20;58.70;;;;;;5035065;28;20792;-64
2021/07/29 11:35:51;;;;;;;2.60;2.40;;;28.70;60.20;;;;;;5037163;28;20482;-64
2021/07/29 11:38:18;;;;;;;2.57;2.37;;;28.60;59.80;;;;;;5036804;28;20425;-63
2021/07/29 11:40:44;;;;;;;3.10;2.80;;;28.40;66.10;;;;;;5037186;28;20397;-63
2021/07/29 11:43:27;;;;;;;2.80;2.60;;;28.10;66.00;;;;;;5037028;28;20771;-63
2021/07/29 11:46:11;;;;;;;2.67;2.47;;;27.80;67.50;;;;;;5017169;28;20424;-63
2021/07/29 11:48:38;;;;;;;2.47;2.27;;;27.70;68.50;;;;;;5016864;28;20403;-63
2021/07/29 11:51:22;;;;;;;3.53;2.30;;;27.60;72.40;;;;;;5017137;28;20475;-65
2021/07/29 11:53:47;;;;;;;2.93;2.63;;;27.50;69.50;;;;;;5016876;28;20456;-63
2021/07/29 11:56:14;;;;;;;3.53;3.07;;;27.30;67.80;;;;;;5019608;28;20817;-64
2021/07/29 11:58:54;;;;;;;2.80;2.47;;;27.10;71.00;;;;;;5036362;28;20254;-63
2021/07/29 12:01:20;;;;;;;2.30;2.10;;;26.90;70.00;;;;;;5019076;28;20424;-63
2021/07/29 12:03:49;;;;;;;2.90;2.70;;;27.00;71.10;;;;;;5023022;28;20415;-63
2021/07/29 12:06:16;;;;;;;3.23;2.70;;;27.00;71.10;;;;;;5036625;28;20255;-63
2021/07/29 12:08:44;;;;;;;2.90;2.10;;;27.10;72.50;;;;;;5022641;28;20436;-62
2021/07/29 12:11:11;;;;;;;3.00;2.10;;;27.20;72.50;;;;;;5020373;28;20442;-63
2021/07/29 12:13:44;;;;;;;2.53;2.23;;;27.00;72.00;;;;;;5036559;28;20423;-63
2021/07/29 12:16:10;;;;;;;2.97;2.17;;;26.80;73.60;;;;;;5035380;28;20429;-63
2021/07/29 12:18:36;;;;;;;3.40;2.80;;;26.70;72.50;;;;;;5035799;28;20794;-63
2021/07/29 12:21:03;;;;;;;3.00;2.27;;;26.60;75.10;;;;;;5036159;28;20406;-64
2021/07/29 12:23:29;;;;;;;2.50;2.30;;;26.70;75.40;;;;;;5036440;28;20457;-63
2021/07/29 12:25:58;;;;;;;3.23;2.50;;;26.60;72.50;;;;;;5035553;28;20431;-64
2021/07/29 12:28:45;;;;;;;3.70;2.70;;;26.50;74.00;;;;;;5034473;28;20197;-64
2021/07/29 12:31:28;;;;;;;5.13;2.17;;;26.50;77.00;;;;;;5035939;28;20429;-64
2021/07/29 12:34:02;;;;;;;2.67;1.97;;;26.50;77.00;;;;;;5036128;28;20385;-64
2021/07/29 12:36:44;;;;;;;3.23;2.40;;;26.50;75.40;;;;;;5034680;28;20742;-64
2021/07/29 12:39:12;;;;;;;2.80;2.20;;;26.70;76.70;;;;;;5016031;28;20409;-65
2021/07/29 12:41:40;;;;;;;2.70;2.47;;;26.80;75.60;;;;;;5028322;28;20420;-64
2021/07/29 12:44:11;;;;;;;2.00;1.90;;;26.90;76.20;;;;;;5035521;28;20381;-64
2021/07/29 12:46:38;;;;;;;2.67;2.00;;;26.80;74.80;;;;;;5035644;28;20446;-63
2021/07/29 12:49:04;;;;;;;1.80;1.70;;;26.70;75.40;;;;;;5035793;28;20418;-64
2021/07/29 12:51:47;;;;;;;2.20;1.90;;;26.70;75.10;;;;;;5033098;28;20393;-64